createdAt,value
2017-11-26T00:00:10.355Z,101672.24
2017-11-26T00:02:39.464Z,101687.92
2017-11-26T00:05:07.769Z,101679.95
2017-11-26T00:07:36.073Z,101685.01
2017-11-26T00:10:04.365Z,101683.50
2017-11-26T00:12:32.668Z,101683.73
2017-11-26T00:15:00.972Z,101687.71
2017-11-26T00:17:30.063Z,101681.56
2017-11-26T00:19:59.136Z,101682.71
2017-11-26T00:22:27.422Z,101685.44
2017-11-26T00:24:55.736Z,101686.43
2017-11-26T00:27:24.075Z,101690.60
2017-11-26T00:29:52.392Z,101691.25
2017-11-26T00:32:20.693Z,101692.23
2017-11-26T00:34:48.998Z,101686.66
2017-11-26T00:37:17.311Z,101692.94
2017-11-26T00:39:45.619Z,101693.02
2017-11-26T00:42:14.694Z,101694.59
2017-11-26T00:44:43.004Z,101695.59
2017-11-26T00:47:12.069Z,101692.09
2017-11-26T00:49:40.395Z,101693.92
2017-11-26T00:52:08.708Z,101696.16
2017-11-26T00:54:37.019Z,101694.48
2017-11-26T00:57:05.317Z,101704.20
2017-11-26T00:59:33.630Z,101702.15
2017-11-26T01:02:01.948Z,101706.55
2017-11-26T01:04:30.258Z,101706.93
2017-11-26T01:06:58.575Z,101696.66
2017-11-26T01:09:26.882Z,101696.76
2017-11-26T01:11:55.184Z,101702.26
2017-11-26T01:14:23.478Z,101704.61
2017-11-26T01:16:51.810Z,101701.72
2017-11-26T01:19:20.108Z,101703.20
2017-11-26T01:21:48.430Z,101706.61
2017-11-26T01:24:16.756Z,101703.95
2017-11-26T01:26:45.062Z,101711.95
2017-11-26T01:29:13.358Z,101708.65
2017-11-26T01:31:41.672Z,101710.20
2017-11-26T01:34:10.742Z,101715.36
2017-11-26T01:36:39.057Z,101707.05
2017-11-26T01:39:08.142Z,101704.66
2017-11-26T01:41:37.122Z,101713.16
2017-11-26T01:44:05.418Z,101712.89
2017-11-26T01:46:33.722Z,101712.42
2017-11-26T01:49:02.018Z,101711.46
2017-11-26T01:51:30.315Z,101714.61
2017-11-26T01:53:58.882Z,101708.98
2017-11-26T01:56:27.172Z,101716.72
2017-11-26T01:58:55.473Z,101711.48
2017-11-26T02:01:23.926Z,101719.20
2017-11-26T02:03:59.074Z,101717.14
2017-11-26T02:06:27.360Z,101716.75
2017-11-26T02:08:55.668Z,101717.66
2017-11-26T02:11:23.983Z,101715.20
2017-11-26T02:13:53.092Z,101718.86
2017-11-26T02:16:22.184Z,101719.98
2017-11-26T02:18:50.775Z,101724.92
2017-11-26T02:21:19.853Z,101728.26
2017-11-26T02:23:48.157Z,101728.48
2017-11-26T02:26:17.222Z,101728.59
2017-11-26T02:28:45.561Z,101726.77
2017-11-26T02:31:31.718Z,101730.27
2017-11-26T02:34:18.626Z,101721.46
2017-11-26T02:36:47.698Z,101720.89
2017-11-26T02:39:15.997Z,101726.13
2017-11-26T02:41:44.310Z,101724.45
2017-11-26T02:44:12.612Z,101715.23
2017-11-26T02:46:40.913Z,101720.63
2017-11-26T02:49:09.982Z,101725.86
2017-11-26T02:51:38.365Z,101716.56
2017-11-26T02:54:06.655Z,101721.23
2017-11-26T02:56:34.973Z,101720.00
2017-11-26T02:59:03.616Z,101723.08
2017-11-26T03:01:31.913Z,101721.41
2017-11-26T03:04:00.238Z,101720.98
2017-11-26T03:06:28.545Z,101714.19
2017-11-26T03:08:57.602Z,101710.96
2017-11-26T03:11:25.900Z,101716.45
2017-11-26T03:13:54.210Z,101716.72
2017-11-26T03:16:22.518Z,101718.65
2017-11-26T03:18:50.833Z,101725.55
2017-11-26T03:21:19.166Z,101725.57
2017-11-26T03:23:47.471Z,101731.98
2017-11-26T03:26:15.813Z,101726.34
2017-11-26T03:28:44.220Z,101723.45
2017-11-26T03:31:12.609Z,101735.23
2017-11-26T03:33:40.916Z,101736.80
2017-11-26T03:36:09.226Z,101728.15
2017-11-26T03:38:38.310Z,101734.45
2017-11-26T03:41:06.615Z,101732.84
2017-11-26T03:43:35.928Z,101733.83
2017-11-26T03:46:05.007Z,101734.95
2017-11-26T03:48:33.315Z,101727.72
2017-11-26T03:51:01.609Z,101718.47
2017-11-26T03:53:29.926Z,101718.70
2017-11-26T03:55:58.232Z,101714.06
2017-11-26T03:58:26.536Z,101711.98
2017-11-26T04:00:54.844Z,101713.39
2017-11-26T04:03:23.161Z,101723.36
2017-11-26T04:05:51.474Z,101723.59
2017-11-26T04:08:20.551Z,101717.63
2017-11-26T04:10:49.194Z,101722.38
2017-11-26T04:13:17.557Z,101717.40
2017-11-26T04:15:45.860Z,101721.83
2017-11-26T04:18:14.539Z,101724.33
2017-11-26T04:20:42.849Z,101719.58
2017-11-26T04:23:11.415Z,101716.77
2017-11-26T04:25:39.718Z,101718.78
2017-11-26T04:28:08.036Z,101716.45
2017-11-26T04:30:37.357Z,101714.48
2017-11-26T04:33:06.457Z,101718.65
2017-11-26T04:35:34.774Z,101719.56
2017-11-26T04:38:03.098Z,101721.30
2017-11-26T04:40:31.732Z,101710.52
2017-11-26T04:43:00.402Z,101709.11
2017-11-26T04:45:28.771Z,101705.38
2017-11-26T04:47:57.082Z,101701.66
2017-11-26T04:50:25.408Z,101701.18
2017-11-26T04:52:53.749Z,101701.52
2017-11-26T04:55:22.061Z,101706.36
2017-11-26T04:57:50.366Z,101707.87
2017-11-26T05:00:18.679Z,101709.45
2017-11-26T05:02:47.012Z,101704.48
2017-11-26T05:05:15.331Z,101706.90
2017-11-26T05:07:44.400Z,101703.55
2017-11-26T05:10:12.709Z,101706.05
2017-11-26T05:12:41.757Z,101704.48
2017-11-26T05:15:10.069Z,101706.56
2017-11-26T05:17:38.373Z,101700.84
2017-11-26T05:20:07.496Z,101706.56
2017-11-26T05:22:35.815Z,101718.45
2017-11-26T05:25:04.122Z,101718.53
2017-11-26T05:27:32.410Z,101732.16
2017-11-26T05:30:01.477Z,101725.28
2017-11-26T05:32:29.777Z,101731.84
2017-11-26T05:34:58.069Z,101733.92
2017-11-26T05:37:27.144Z,101732.10
2017-11-26T05:39:55.446Z,101733.66
2017-11-26T05:42:23.782Z,101739.73
2017-11-26T05:44:52.085Z,101735.58
2017-11-26T05:47:20.404Z,101733.27
2017-11-26T05:49:49.465Z,101740.17
2017-11-26T05:52:17.778Z,101746.66
2017-11-26T05:54:46.875Z,101745.25
2017-11-26T05:57:15.943Z,101749.16
2017-11-26T05:59:44.245Z,101748.66
2017-11-26T06:02:12.545Z,101753.97
2017-11-26T06:04:41.625Z,101755.80
2017-11-26T06:07:10.722Z,101755.30
2017-11-26T06:09:39.045Z,101760.05
2017-11-26T06:12:07.361Z,101759.89
2017-11-26T06:14:35.687Z,101752.98
2017-11-26T06:17:04.764Z,101757.39
2017-11-26T06:19:33.058Z,101758.64
2017-11-26T06:22:02.128Z,101754.73
2017-11-26T06:24:30.416Z,101759.63
2017-11-26T06:26:58.735Z,101763.95
2017-11-26T06:29:27.024Z,101769.77
2017-11-26T06:31:55.360Z,101773.27
2017-11-26T06:34:23.653Z,101765.09
2017-11-26T06:36:51.953Z,101765.09
2017-11-26T06:39:21.021Z,101771.09
2017-11-26T06:41:49.322Z,101773.67
2017-11-26T06:44:17.633Z,101785.56
2017-11-26T06:46:45.913Z,101783.73
2017-11-26T06:49:14.230Z,101787.64
2017-11-26T06:51:42.512Z,101786.65
2017-11-26T06:54:10.807Z,101792.23
2017-11-26T06:56:39.119Z,101791.31
2017-11-26T06:59:08.176Z,101789.91
2017-11-26T07:01:36.470Z,101793.81
2017-11-26T07:04:04.776Z,101797.23
2017-11-26T07:06:33.845Z,101811.45
2017-11-26T07:09:03.010Z,101818.43
2017-11-26T07:11:31.316Z,101826.33
2017-11-26T07:13:59.663Z,101836.69
2017-11-26T07:16:27.985Z,101817.62
2017-11-26T07:18:56.306Z,101818.38
2017-11-26T07:21:25.392Z,101825.16
2017-11-26T07:23:53.720Z,101833.56
2017-11-26T07:26:22.049Z,101833.77
2017-11-26T07:28:50.349Z,101835.55
2017-11-26T07:31:19.422Z,101840.72
2017-11-26T07:33:47.743Z,101841.44
2017-11-26T07:36:16.057Z,101837.95
2017-11-26T07:38:44.532Z,101844.93
2017-11-26T07:41:12.829Z,101849.75
2017-11-26T07:43:41.170Z,101842.69
2017-11-26T07:46:10.253Z,101853.09
2017-11-26T07:48:39.323Z,101863.45
2017-11-26T07:51:07.637Z,101867.89
2017-11-26T07:53:35.964Z,101870.66
2017-11-26T07:56:04.261Z,101871.34
2017-11-26T07:58:32.594Z,101867.09
2017-11-26T08:01:01.680Z,101871.42
2017-11-26T08:03:30.833Z,101872.83
2017-11-26T08:05:59.159Z,101868.16
2017-11-26T08:08:27.488Z,101867.66
2017-11-26T08:10:55.810Z,101870.44
2017-11-26T08:13:24.110Z,101871.95
2017-11-26T08:15:53.190Z,101867.23
2017-11-26T08:18:21.518Z,101873.31
2017-11-26T08:20:49.819Z,101873.65
2017-11-26T08:23:18.125Z,101868.44
2017-11-26T08:25:46.457Z,101875.77
2017-11-26T08:28:14.754Z,101873.19
2017-11-26T08:30:43.067Z,101872.46
2017-11-26T08:33:11.386Z,101878.72
2017-11-26T08:35:40.823Z,101879.05
2017-11-26T08:38:09.192Z,101877.68
2017-11-26T08:40:37.539Z,101882.38
2017-11-26T08:43:06.648Z,101883.88
2017-11-26T08:45:34.951Z,101887.48
2017-11-26T08:48:03.299Z,101887.25
2017-11-26T08:50:31.658Z,101886.48
2017-11-26T08:52:59.964Z,101889.33
2017-11-26T08:55:28.608Z,101891.25
2017-11-26T08:57:56.911Z,101897.93
2017-11-26T09:00:25.219Z,101898.53
2017-11-26T09:02:53.637Z,101894.69
2017-11-26T09:05:21.949Z,101898.86
2017-11-26T09:07:53.266Z,101905.36
2017-11-26T09:10:21.567Z,101907.86
2017-11-26T09:12:49.896Z,101908.37
2017-11-26T09:15:18.224Z,101906.80
2017-11-26T09:17:46.538Z,101905.75
2017-11-26T09:20:14.861Z,101911.66
2017-11-26T09:22:43.924Z,101911.58
2017-11-26T09:25:12.604Z,101916.17
2017-11-26T09:27:40.954Z,101911.44
2017-11-26T09:30:09.288Z,101925.73
2017-11-26T09:32:37.922Z,101926.00
2017-11-26T09:35:06.289Z,101926.20
2017-11-26T09:37:35.472Z,101931.09
2017-11-26T09:40:03.877Z,101933.39
2017-11-26T09:42:33.015Z,101945.78
2017-11-26T09:45:01.331Z,101953.38
2017-11-26T09:47:29.689Z,101945.26
2017-11-26T09:49:58.152Z,101942.09
2017-11-26T09:52:26.460Z,101947.94
2017-11-26T09:54:54.765Z,101950.54
2017-11-26T09:57:23.102Z,101958.53
2017-11-26T09:59:51.437Z,101952.41
2017-11-26T10:02:19.749Z,101968.08
2017-11-26T10:04:48.834Z,101951.28
2017-11-26T10:07:17.226Z,101950.89
2017-11-26T10:09:45.624Z,101957.78
2017-11-26T10:12:13.950Z,101955.20
2017-11-26T10:14:42.285Z,101959.45
2017-11-26T10:17:10.589Z,101956.16
2017-11-26T10:19:39.096Z,101956.39
2017-11-26T10:22:07.454Z,101952.39
2017-11-26T10:24:35.763Z,101962.53
2017-11-26T10:27:04.071Z,101966.55
2017-11-26T10:29:32.392Z,101968.77
2017-11-26T10:32:00.714Z,101966.16
2017-11-26T10:34:29.482Z,101971.48
2017-11-26T10:39:25.469Z,101964.45
2017-11-26T10:41:54.554Z,101966.41
2017-11-26T10:44:22.844Z,101975.02
2017-11-26T10:46:51.215Z,101973.20
2017-11-26T10:49:19.511Z,101973.50
2017-11-26T10:51:47.826Z,101957.86
2017-11-26T10:54:16.138Z,101960.73
2017-11-26T10:56:44.470Z,101978.49
2017-11-26T10:59:13.528Z,101968.66
2017-11-26T11:01:41.846Z,101967.66
2017-11-26T11:04:10.913Z,101982.16
2017-11-26T11:06:39.215Z,101981.50
2017-11-26T11:09:07.537Z,101982.50
2017-11-26T11:11:35.848Z,101992.92
2017-11-26T11:14:04.168Z,101988.11
2017-11-26T11:16:32.483Z,101991.86
2017-11-26T11:19:00.808Z,101993.45
2017-11-26T11:21:29.108Z,101986.20
2017-11-26T11:24:01.798Z,101992.95
2017-11-26T11:26:30.865Z,101999.56
2017-11-26T11:28:59.192Z,101994.39
2017-11-26T11:31:27.520Z,101998.66
2017-11-26T11:33:56.590Z,102014.48
2017-11-26T11:36:24.881Z,102021.34
2017-11-26T11:38:55.915Z,102008.73
2017-11-26T11:41:24.301Z,102021.18
2017-11-26T11:43:52.612Z,102017.48
2017-11-26T11:46:20.965Z,102013.63
2017-11-26T11:48:50.492Z,102018.28
2017-11-26T11:51:18.789Z,102014.77
2017-11-26T11:53:47.123Z,102018.39
2017-11-26T11:56:15.420Z,102022.67
2017-11-26T11:58:43.725Z,102013.23
2017-11-26T12:01:12.004Z,102022.80
2017-11-26T12:03:40.305Z,102021.22
2017-11-26T12:06:08.613Z,102017.02
2017-11-26T12:08:37.729Z,102025.68
2017-11-26T12:11:06.025Z,102021.48
2017-11-26T12:13:34.361Z,102032.05
2017-11-26T12:16:03.430Z,102031.08
2017-11-26T12:18:31.719Z,102029.20
2017-11-26T12:21:00.791Z,102050.30
2017-11-26T12:23:29.080Z,102037.86
2017-11-26T12:25:57.378Z,102044.31
2017-11-26T12:28:26.452Z,102043.36
2017-11-26T12:30:54.761Z,102052.77
2017-11-26T12:33:23.156Z,102038.45
2017-11-26T12:35:51.447Z,102043.23
2017-11-26T12:38:19.760Z,102040.92
2017-11-26T12:40:48.058Z,102038.70
2017-11-26T12:43:16.400Z,102045.39
2017-11-26T12:45:45.480Z,102038.79
2017-11-26T12:48:13.773Z,102049.97
2017-11-26T12:50:42.076Z,102047.72
2017-11-26T12:53:10.397Z,102053.30
2017-11-26T12:55:38.696Z,102046.39
2017-11-26T12:58:06.991Z,102057.16
2017-11-26T13:00:35.339Z,102053.55
2017-11-26T13:03:03.633Z,102051.55
2017-11-26T13:05:31.930Z,102068.87
2017-11-26T13:08:00.241Z,102054.47
2017-11-26T13:10:29.322Z,102057.05
2017-11-26T13:15:30.594Z,102057.05
2017-11-26T13:17:59.743Z,102056.05
2017-11-26T13:20:28.243Z,102059.20
2017-11-26T13:22:56.561Z,102067.63
2017-11-26T13:25:24.909Z,102052.59
2017-11-26T13:27:53.213Z,102051.77
2017-11-26T13:30:22.375Z,102049.88
2017-11-26T13:32:50.684Z,102047.53
2017-11-26T13:35:19.003Z,102039.02
2017-11-26T13:37:48.132Z,102047.03
2017-11-26T13:40:16.508Z,102054.95
2017-11-26T13:42:44.809Z,102046.87
2017-11-26T13:45:13.142Z,102059.97
2017-11-26T13:47:42.262Z,102056.48
2017-11-26T13:50:10.580Z,102067.87
2017-11-26T13:52:38.895Z,102063.30
2017-11-26T13:55:07.988Z,102063.82
2017-11-26T13:57:37.142Z,102059.48
2017-11-26T14:00:05.467Z,102067.87
2017-11-26T14:02:33.777Z,102083.99
2017-11-26T14:05:02.894Z,102074.25
2017-11-26T14:07:31.196Z,102078.64
2017-11-26T14:09:59.510Z,102082.15
2017-11-26T14:12:28.087Z,102076.47
2017-11-26T14:14:56.416Z,102085.08
2017-11-26T14:17:26.246Z,102095.10
2017-11-26T14:19:54.554Z,102092.38
2017-11-26T14:22:22.855Z,102093.59
2017-11-26T14:24:51.174Z,102096.59
2017-11-26T14:27:19.492Z,102097.43
2017-11-26T14:29:47.788Z,102103.56
2017-11-26T14:32:16.965Z,102108.14
2017-11-26T14:34:45.267Z,102102.94
2017-11-26T14:37:13.663Z,102103.25
2017-11-26T14:39:42.065Z,102109.67
2017-11-26T14:42:10.420Z,102113.07
2017-11-26T14:44:39.494Z,102114.87
2017-11-26T14:47:07.808Z,102113.23
2017-11-26T14:49:36.128Z,102114.50
2017-11-26T14:55:41.468Z,102119.91
2017-11-26T14:58:09.772Z,102126.47
2017-11-26T15:00:38.919Z,102126.45
2017-11-26T15:03:07.281Z,102125.69
2017-11-26T15:05:35.629Z,102125.42
2017-11-26T15:08:04.078Z,102121.02
2017-11-26T15:10:32.431Z,102128.54
2017-11-26T15:13:00.742Z,102134.28
2017-11-26T15:15:29.068Z,102140.78
2017-11-26T15:17:58.163Z,102138.77
2017-11-26T15:20:27.276Z,102140.94
2017-11-26T15:22:55.596Z,102142.77
2017-11-26T15:25:24.089Z,102142.27
2017-11-26T15:27:52.424Z,102145.39
2017-11-26T15:30:20.722Z,102143.36
2017-11-26T15:32:49.074Z,102148.84
2017-11-26T15:35:18.766Z,102141.36
2017-11-26T15:37:47.296Z,102142.88
2017-11-26T15:40:15.667Z,102149.25
2017-11-26T15:42:44.037Z,102157.72
2017-11-26T15:45:13.269Z,102160.73
2017-11-26T15:47:41.697Z,102154.46
2017-11-26T15:50:11.521Z,102150.09
2017-11-26T15:52:39.855Z,102150.25
2017-11-26T15:55:08.168Z,102150.25
2017-11-26T15:57:36.498Z,102152.74
2017-11-26T16:00:04.798Z,102163.23
2017-11-26T16:02:34.771Z,102170.47
2017-11-26T16:05:03.879Z,102165.52
2017-11-26T16:07:33.000Z,102158.46
2017-11-26T16:10:01.297Z,102158.52
2017-11-26T16:12:29.620Z,102160.78
2017-11-26T16:14:58.095Z,102164.84
2017-11-26T16:17:26.474Z,102163.42
2017-11-26T16:19:56.181Z,102168.16
2017-11-26T16:22:24.491Z,102172.15
2017-11-26T16:24:53.616Z,102169.84
2017-11-26T16:27:21.923Z,102163.48
2017-11-26T16:29:50.235Z,102173.40
2017-11-26T16:32:18.666Z,102168.81
2017-11-26T16:34:46.981Z,102171.77
2017-11-26T16:37:15.281Z,102173.31
2017-11-26T16:39:43.588Z,102174.77
2017-11-26T16:42:12.707Z,102177.02
2017-11-26T16:44:41.063Z,102171.61
2017-11-26T16:47:10.153Z,102172.33
2017-11-26T16:49:39.217Z,102181.67
2017-11-26T16:52:07.511Z,102182.94
2017-11-26T16:54:37.370Z,102176.86
2017-11-26T16:57:05.685Z,102192.23
2017-11-26T16:59:33.997Z,102176.52
2017-11-26T17:02:02.317Z,102175.48
2017-11-26T17:04:30.643Z,102178.45
2017-11-26T17:06:58.958Z,102187.34
2017-11-26T17:09:28.245Z,102186.44
2017-11-26T17:11:56.566Z,102187.89
2017-11-26T17:14:24.884Z,102186.25
2017-11-26T17:16:59.954Z,102185.33
2017-11-26T17:19:28.284Z,102189.16
2017-11-26T17:21:57.463Z,102193.52
2017-11-26T17:24:25.933Z,102194.70
2017-11-26T17:26:54.265Z,102198.74
2017-11-26T17:29:22.820Z,102195.55
2017-11-26T17:31:51.148Z,102197.15
2017-11-26T17:34:19.449Z,102195.19
2017-11-26T17:36:48.520Z,102195.75
2017-11-26T17:39:16.812Z,102200.44
2017-11-26T17:41:45.183Z,102211.98
2017-11-26T17:44:13.547Z,102211.61
2017-11-26T17:46:41.947Z,102199.52
2017-11-26T17:49:11.229Z,102203.09
2017-11-26T17:51:39.538Z,102197.91
2017-11-26T17:54:08.597Z,102202.31
2017-11-26T17:56:37.699Z,102204.77
2017-11-26T17:59:06.036Z,102207.06
2017-11-26T18:01:35.115Z,102217.20
2017-11-26T18:04:04.972Z,102213.96
2017-11-26T18:06:33.355Z,102218.34
2017-11-26T18:09:01.801Z,102216.63
2017-11-26T18:11:30.311Z,102215.15
2017-11-26T18:13:58.639Z,102218.73
2017-11-26T18:16:26.970Z,102212.77
2017-11-26T18:18:55.301Z,102218.05
2017-11-26T18:21:23.592Z,102224.57
2017-11-26T18:23:51.934Z,102225.25
2017-11-26T18:26:20.254Z,102225.00
2017-11-26T18:28:48.578Z,102237.90
2017-11-26T18:31:17.651Z,102254.63
2017-11-26T18:33:46.732Z,102260.98
2017-11-26T18:36:15.063Z,102288.95
2017-11-26T18:38:43.393Z,102277.00
2017-11-26T18:41:12.461Z,102253.25
2017-11-26T18:43:40.778Z,102250.07
2017-11-26T18:46:09.705Z,102254.40
2017-11-26T18:48:38.010Z,102247.13
2017-11-26T18:51:06.302Z,102239.52
2017-11-26T18:53:34.605Z,102237.04
2017-11-26T18:56:02.948Z,102237.64
2017-11-26T18:58:31.279Z,102237.47
2017-11-26T19:01:00.373Z,102241.58
2017-11-26T19:03:28.726Z,102242.38
2017-11-26T19:05:57.026Z,102233.36
2017-11-26T19:08:25.399Z,102250.55
2017-11-26T19:10:53.825Z,102245.53
2017-11-26T19:13:22.906Z,102252.16
2017-11-26T19:15:51.248Z,102244.74
2017-11-26T19:18:19.750Z,102237.69
2017-11-26T19:20:48.079Z,102225.94
2017-11-26T19:23:17.152Z,102233.48
2017-11-26T19:25:46.239Z,102235.75
2017-11-26T19:28:14.760Z,102242.25
2017-11-26T19:30:43.113Z,102250.19
2017-11-26T19:33:12.175Z,102246.56
2017-11-26T19:35:40.477Z,102242.23
2017-11-26T19:38:09.534Z,102239.13
2017-11-26T19:40:37.873Z,102241.86
2017-11-26T19:43:06.184Z,102229.01
2017-11-26T19:45:34.519Z,102228.45
2017-11-26T19:48:02.975Z,102229.70
2017-11-26T19:50:31.311Z,102228.16
2017-11-26T19:53:00.364Z,102234.11
2017-11-26T19:55:28.673Z,102231.17
2017-11-26T19:57:57.753Z,102228.87
2017-11-26T20:00:26.068Z,102221.88
2017-11-26T20:02:55.146Z,102217.72
2017-11-26T20:05:23.489Z,102217.86
2017-11-26T20:07:51.792Z,102214.64
2017-11-26T20:10:20.102Z,102209.83
2017-11-26T20:12:48.412Z,102220.06
2017-11-26T20:15:17.677Z,102235.99
2017-11-26T20:17:45.995Z,102241.30
2017-11-26T20:20:14.301Z,102230.47
2017-11-26T20:22:42.608Z,102225.23
2017-11-26T20:25:10.900Z,102231.80
2017-11-26T20:27:39.226Z,102235.22
2017-11-26T20:30:07.526Z,102228.94
2017-11-26T20:32:35.839Z,102225.99
2017-11-26T20:35:05.601Z,102224.28
2017-11-26T20:37:33.907Z,102226.50
2017-11-26T20:40:02.221Z,102233.08
2017-11-26T20:42:31.352Z,102234.95
2017-11-26T20:44:59.653Z,102232.25
2017-11-26T20:47:28.170Z,102250.51
2017-11-26T20:49:56.559Z,102254.81
2017-11-26T20:52:25.695Z,102245.31
2017-11-26T20:54:54.056Z,102232.70
2017-11-26T20:57:22.372Z,102246.13
2017-11-26T20:59:51.618Z,102234.11
2017-11-26T21:02:20.736Z,102234.67
2017-11-26T21:04:49.597Z,102224.67
2017-11-26T21:07:17.943Z,102226.77
2017-11-26T21:09:46.288Z,102205.73
2017-11-26T21:12:14.633Z,102212.65
2017-11-26T21:14:42.932Z,102209.70
2017-11-26T21:17:12.742Z,102210.58
2017-11-26T21:19:41.062Z,102223.93
2017-11-26T21:22:10.758Z,102210.64
2017-11-26T21:24:39.119Z,102225.67
2017-11-26T21:27:07.418Z,102220.77
2017-11-26T21:29:35.745Z,102243.35
2017-11-26T21:32:04.053Z,102251.44
2017-11-26T21:34:32.365Z,102266.05
2017-11-26T21:37:00.685Z,102251.70
2017-11-26T21:39:28.988Z,102227.44
2017-11-26T21:41:57.350Z,102218.86
2017-11-26T21:44:25.706Z,102212.42
2017-11-26T21:46:54.811Z,102216.48
2017-11-26T21:49:23.122Z,102215.00
2017-11-26T21:51:52.081Z,102209.01
2017-11-26T21:54:21.144Z,102184.27
2017-11-26T21:56:49.464Z,102186.64
2017-11-26T21:59:17.782Z,102182.52
2017-11-26T22:01:46.089Z,102186.23
2017-11-26T22:04:14.399Z,102185.11
2017-11-26T22:06:43.456Z,102179.45
2017-11-26T22:09:11.812Z,102179.20
2017-11-26T22:11:40.119Z,102181.57
2017-11-26T22:14:08.434Z,102185.41
2017-11-26T22:16:37.510Z,102169.89
2017-11-26T22:19:07.242Z,102173.45
2017-11-26T22:21:36.298Z,102174.91
2017-11-26T22:24:04.595Z,102182.84
2017-11-26T22:26:33.059Z,102194.51
2017-11-26T22:29:01.367Z,102186.44
2017-11-26T22:31:29.677Z,102192.58
2017-11-26T22:33:58.780Z,102195.13
2017-11-26T22:36:27.101Z,102188.19
2017-11-26T22:38:55.398Z,102182.78
2017-11-26T22:41:23.718Z,102177.08
2017-11-26T22:43:52.800Z,102177.57
2017-11-26T22:46:21.107Z,102166.47
2017-11-26T22:48:49.420Z,102171.70
2017-11-26T22:51:17.726Z,102168.84
2017-11-26T22:53:46.030Z,102160.45
2017-11-26T22:56:15.118Z,102154.83
2017-11-26T22:58:44.200Z,102149.45
2017-11-26T23:01:12.507Z,102148.13
2017-11-26T23:03:41.589Z,102146.45
2017-11-26T23:06:10.663Z,102148.89
2017-11-26T23:08:38.979Z,102151.65
2017-11-26T23:11:07.298Z,102154.10
2017-11-26T23:13:35.733Z,102159.76
2017-11-26T23:16:04.063Z,102148.44
2017-11-26T23:18:32.372Z,102157.59
2017-11-26T23:21:00.676Z,102165.31
2017-11-26T23:23:29.742Z,102159.48
2017-11-26T23:25:58.058Z,102158.19
2017-11-26T23:28:26.370Z,102156.90
2017-11-26T23:30:54.684Z,102152.05
2017-11-26T23:33:22.978Z,102163.46
2017-11-26T23:35:51.293Z,102153.69
2017-11-26T23:38:20.444Z,102139.58
2017-11-26T23:40:48.746Z,102139.83
2017-11-26T23:43:17.142Z,102135.08
2017-11-26T23:45:45.470Z,102121.57
2017-11-26T23:48:13.776Z,102122.06
2017-11-26T23:50:42.066Z,102120.73
2017-11-26T23:53:10.370Z,102120.17
2017-11-26T23:55:38.747Z,102123.59
2017-11-26T23:58:08.561Z,102112.77
